sensor_id;sensor_type;location;lat;lon;timestamp;P1;durP1;ratioP1;P2;durP2;ratioP2
75516;SDS011;64097;52.548;13.406;2022-12-07T06:02:40;15.85;;;12.73;;
75516;SDS011;64097;52.548;13.406;2022-12-07T06:05:05;16.30;;;12.93;;
75516;SDS011;64097;52.548;13.406;2022-12-07T06:07:32;15.73;;;12.55;;
75516;SDS011;64097;52.548;13.406;2022-12-07T06:09:58;19.25;;;12.98;;
75516;SDS011;64097;52.548;13.406;2022-12-07T06:12:24;19.77;;;14.32;;
75516;SDS011;64097;52.548;13.406;2022-12-07T06:15:03;18.67;;;13.98;;
75516;SDS011;64097;52.548;13.406;2022-12-07T06:17:29;14.85;;;11.68;;
75516;SDS011;64097;52.548;13.406;2022-12-07T06:19:55;17.42;;;13.27;;
75516;SDS011;64097;52.548;13.406;2022-12-07T06:22:20;14.52;;;12.32;;
75516;SDS011;64097;52.548;13.406;2022-12-07T06:24:46;17.73;;;13.27;;
75516;SDS011;64097;52.548;13.406;2022-12-07T06:27:12;19.45;;;13.25;;
75516;SDS011;64097;52.548;13.406;2022-12-07T06:29:38;18.52;;;13.77;;
75516;SDS011;64097;52.548;13.406;2022-12-07T06:32:04;18.00;;;13.55;;
75516;SDS011;64097;52.548;13.406;2022-12-07T06:34:30;17.73;;;13.45;;
75516;SDS011;64097;52.548;13.406;2022-12-07T06:36:55;16.67;;;11.98;;
75516;SDS011;64097;52.548;13.406;2022-12-07T06:39:22;16.65;;;12.02;;
75516;SDS011;64097;52.548;13.406;2022-12-07T06:41:50;15.45;;;11.98;;
75516;SDS011;64097;52.548;13.406;2022-12-07T06:44:19;17.83;;;13.07;;
75516;SDS011;64097;52.548;13.406;2022-12-07T06:46:46;18.58;;;13.05;;
75516;SDS011;64097;52.548;13.406;2022-12-07T06:49:12;17.50;;;13.40;;
75516;SDS011;64097;52.548;13.406;2022-12-07T06:51:38;15.65;;;11.02;;
75516;SDS011;64097;52.548;13.406;2022-12-07T06:54:12;15.68;;;12.30;;
75516;SDS011;64097;52.548;13.406;2022-12-07T06:56:39;17.02;;;12.68;;
75516;SDS011;64097;52.548;13.406;2022-12-07T06:59:05;17.98;;;13.43;;
75516;SDS011;64097;52.548;13.406;2022-12-07T07:01:31;16.70;;;13.30;;
75516;SDS011;64097;52.548;13.406;2022-12-07T07:03:58;16.17;;;12.75;;
75516;SDS011;64097;52.548;13.406;2022-12-07T07:06:24;15.07;;;12.18;;
75516;SDS011;64097;52.548;13.406;2022-12-07T07:08:50;16.30;;;11.80;;
75516;SDS011;64097;52.548;13.406;2022-12-07T07:11:16;19.42;;;13.77;;
75516;SDS011;64097;52.548;13.406;2022-12-07T07:13:42;17.10;;;12.90;;
75516;SDS011;64097;52.548;13.406;2022-12-07T07:16:08;17.92;;;13.60;;
75516;SDS011;64097;52.548;13.406;2022-12-07T07:18:34;15.95;;;11.93;;
75516;SDS011;64097;52.548;13.406;2022-12-07T07:21:00;18.08;;;13.98;;
75516;SDS011;64097;52.548;13.406;2022-12-07T07:23:27;17.05;;;13.30;;
75516;SDS011;64097;52.548;13.406;2022-12-07T07:25:53;18.10;;;13.82;;
75516;SDS011;64097;52.548;13.406;2022-12-07T07:28:19;17.15;;;13.15;;
75516;SDS011;64097;52.548;13.406;2022-12-07T07:30:45;16.23;;;12.48;;
75516;SDS011;64097;52.548;13.406;2022-12-07T07:33:11;17.90;;;12.90;;
75516;SDS011;64097;52.548;13.406;2022-12-07T07:35:37;15.60;;;12.45;;
75516;SDS011;64097;52.548;13.406;2022-12-07T07:38:04;13.75;;;11.07;;
75516;SDS011;64097;52.548;13.406;2022-12-07T07:40:30;14.75;;;11.05;;
75516;SDS011;64097;52.548;13.406;2022-12-07T07:42:57;16.70;;;11.65;;
75516;SDS011;64097;52.548;13.406;2022-12-07T07:45:23;16.65;;;10.85;;
75516;SDS011;64097;52.548;13.406;2022-12-07T07:47:51;15.35;;;11.60;;
75516;SDS011;64097;52.548;13.406;2022-12-07T07:50:17;14.15;;;10.57;;
75516;SDS011;64097;52.548;13.406;2022-12-07T07:52:44;13.75;;;9.63;;
75516;SDS011;64097;52.548;13.406;2022-12-07T07:55:10;12.25;;;9.80;;
75516;SDS011;64097;52.548;13.406;2022-12-07T07:57:37;12.45;;;9.65;;
75516;SDS011;64097;52.548;13.406;2022-12-07T08:00:04;12.00;;;9.65;;
75516;SDS011;64097;52.548;13.406;2022-12-07T08:02:35;14.10;;;10.52;;
75516;SDS011;64097;52.548;13.406;2022-12-07T08:05:00;11.52;;;8.85;;
75516;SDS011;64097;52.548;13.406;2022-12-07T08:07:27;12.40;;;8.68;;
75516;SDS011;64097;52.548;13.406;2022-12-07T08:09:53;10.80;;;8.25;;
75516;SDS011;64097;52.548;13.406;2022-12-07T08:12:18;10.10;;;8.15;;
75516;SDS011;64097;52.548;13.406;2022-12-07T08:14:44;9.35;;;7.22;;
75516;SDS011;64097;52.548;13.406;2022-12-07T08:17:11;8.70;;;7.20;;
75516;SDS011;64097;52.548;13.406;2022-12-07T08:19:37;8.50;;;7.10;;
75516;SDS011;64097;52.548;13.406;2022-12-07T08:22:04;9.60;;;7.25;;
75516;SDS011;64097;52.548;13.406;2022-12-07T08:24:32;7.32;;;6.47;;
75516;SDS011;64097;52.548;13.406;2022-12-07T08:26:59;7.10;;;5.95;;
75516;SDS011;64097;52.548;13.406;2022-12-07T08:29:25;9.02;;;6.15;;
75516;SDS011;64097;52.548;13.406;2022-12-07T08:31:50;7.53;;;5.40;;
75516;SDS011;64097;52.548;13.406;2022-12-07T08:34:16;6.22;;;5.55;;
75516;SDS011;64097;52.548;13.406;2022-12-07T08:36:43;5.97;;;4.60;;
75516;SDS011;64097;52.548;13.406;2022-12-07T08:39:09;6.60;;;4.65;;
75516;SDS011;64097;52.548;13.406;2022-12-07T08:41:35;5.63;;;4.50;;
75516;SDS011;64097;52.548;13.406;2022-12-07T08:44:01;4.57;;;4.05;;
75516;SDS011;64097;52.548;13.406;2022-12-07T08:49:24;5.18;;;4.32;;
75516;SDS011;64097;52.548;13.406;2022-12-07T08:51:55;5.38;;;3.80;;
75516;SDS011;64097;52.548;13.406;2022-12-07T08:54:21;4.13;;;3.45;;
75516;SDS011;64097;52.548;13.406;2022-12-07T08:56:47;4.00;;;3.53;;
75516;SDS011;64097;52.548;13.406;2022-12-07T08:59:16;3.92;;;3.50;;
75516;SDS011;64097;52.548;13.406;2022-12-07T09:01:42;4.50;;;3.25;;
75516;SDS011;64097;52.548;13.406;2022-12-07T09:04:08;4.65;;;3.30;;
75516;SDS011;64097;52.548;13.406;2022-12-07T09:06:35;4.22;;;3.00;;
75516;SDS011;64097;52.548;13.406;2022-12-07T09:09:01;3.33;;;3.00;;
75516;SDS011;64097;52.548;13.406;2022-12-07T09:11:29;3.38;;;2.83;;
75516;SDS011;64097;52.548;13.406;2022-12-07T09:13:58;3.30;;;2.85;;
75516;SDS011;64097;52.548;13.406;2022-12-07T09:16:24;2.47;;;2.15;;
75516;SDS011;64097;52.548;13.406;2022-12-07T09:18:50;2.85;;;2.47;;
75516;SDS011;64097;52.548;13.406;2022-12-07T09:21:16;2.38;;;2.17;;
75516;SDS011;64097;52.548;13.406;2022-12-07T09:23:44;3.30;;;2.30;;
75516;SDS011;64097;52.548;13.406;2022-12-07T09:26:10;2.40;;;2.17;;
75516;SDS011;64097;52.548;13.406;2022-12-07T09:28:36;2.20;;;1.95;;
75516;SDS011;64097;52.548;13.406;2022-12-07T09:31:02;1.60;;;1.50;;
75516;SDS011;64097;52.548;13.406;2022-12-07T09:33:28;2.30;;;1.80;;
75516;SDS011;64097;52.548;13.406;2022-12-07T09:35:54;2.20;;;1.98;;
75516;SDS011;64097;52.548;13.406;2022-12-07T09:38:20;2.78;;;2.03;;
75516;SDS011;64097;52.548;13.406;2022-12-07T09:40:45;2.15;;;1.95;;
75516;SDS011;64097;52.548;13.406;2022-12-07T09:43:21;2.10;;;1.90;;
75516;SDS011;64097;52.548;13.406;2022-12-07T09:45:51;1.73;;;1.63;;
75516;SDS011;64097;52.548;13.406;2022-12-07T09:51:01;3.38;;;1.90;;
75516;SDS011;64097;52.548;13.406;2022-12-07T09:53:33;2.28;;;1.85;;
75516;SDS011;64097;52.548;13.406;2022-12-07T09:56:00;1.33;;;1.23;;
75516;SDS011;64097;52.548;13.406;2022-12-07T09:58:28;2.45;;;2.00;;
75516;SDS011;64097;52.548;13.406;2022-12-07T10:01:08;2.10;;;1.60;;
75516;SDS011;64097;52.548;13.406;2022-12-07T10:03:38;2.05;;;1.75;;
75516;SDS011;64097;52.548;13.406;2022-12-07T10:06:06;2.00;;;1.90;;
75516;SDS011;64097;52.548;13.406;2022-12-07T10:08:32;2.17;;;1.90;;
75516;SDS011;64097;52.548;13.406;2022-12-07T10:10:59;2.22;;;1.98;;
75516;SDS011;64097;52.548;13.406;2022-12-07T10:16:02;2.10;;;1.63;;
75516;SDS011;64097;52.548;13.406;2022-12-07T10:21:14;2.13;;;1.92;;
75516;SDS011;64097;52.548;13.406;2022-12-07T10:24:02;2.50;;;1.85;;
75516;SDS011;64097;52.548;13.406;2022-12-07T10:29:17;4.18;;;2.95;;
75516;SDS011;64097;52.548;13.406;2022-12-07T10:34:51;2.70;;;2.17;;
75516;SDS011;64097;52.548;13.406;2022-12-07T10:37:52;3.38;;;2.70;;
75516;SDS011;64097;52.548;13.406;2022-12-07T10:48:16;2.00;;;1.80;;
75516;SDS011;64097;52.548;13.406;2022-12-07T10:56:32;2.97;;;2.40;;
75516;SDS011;64097;52.548;13.406;2022-12-07T11:01:45;2.13;;;1.92;;
75516;SDS011;64097;52.548;13.406;2022-12-07T11:04:16;2.35;;;2.15;;
75516;SDS011;64097;52.548;13.406;2022-12-07T11:12:27;2.92;;;2.55;;
75516;SDS011;64097;52.548;13.406;2022-12-07T11:20:41;2.70;;;2.50;;
75516;SDS011;64097;52.548;13.406;2022-12-07T11:37:17;4.45;;;2.50;;
75516;SDS011;64097;52.548;13.406;2022-12-07T11:39:54;2.33;;;2.13;;
75516;SDS011;64097;52.548;13.406;2022-12-07T11:42:36;3.40;;;2.42;;
75516;SDS011;64097;52.548;13.406;2022-12-07T11:45:16;4.80;;;2.30;;
75516;SDS011;64097;52.548;13.406;2022-12-07T11:47:54;5.57;;;2.58;;
75516;SDS011;64097;52.548;13.406;2022-12-07T11:50:43;3.10;;;2.80;;
75516;SDS011;64097;52.548;13.406;2022-12-07T11:53:25;2.95;;;2.25;;
75516;SDS011;64097;52.548;13.406;2022-12-07T12:01:15;6.13;;;3.22;;
75516;SDS011;64097;52.548;13.406;2022-12-07T12:03:52;4.97;;;3.25;;
75516;SDS011;64097;52.548;13.406;2022-12-07T12:06:31;3.38;;;2.65;;
75516;SDS011;64097;52.548;13.406;2022-12-07T12:09:09;3.08;;;2.65;;
75516;SDS011;64097;52.548;13.406;2022-12-07T12:12:01;5.47;;;3.90;;
75516;SDS011;64097;52.548;13.406;2022-12-07T12:14:37;6.60;;;3.50;;
75516;SDS011;64097;52.548;13.406;2022-12-07T12:19:41;4.00;;;2.80;;
75516;SDS011;64097;52.548;13.406;2022-12-07T12:22:33;3.63;;;2.63;;
75516;SDS011;64097;52.548;13.406;2022-12-07T12:25:04;4.55;;;2.83;;
75516;SDS011;64097;52.548;13.406;2022-12-07T12:27:44;3.30;;;2.50;;
75516;SDS011;64097;52.548;13.406;2022-12-07T12:33:05;5.43;;;3.05;;
75516;SDS011;64097;52.548;13.406;2022-12-07T12:46:53;4.63;;;2.78;;
75516;SDS011;64097;52.548;13.406;2022-12-07T12:49:39;3.38;;;2.10;;
75516;SDS011;64097;52.548;13.406;2022-12-07T12:54:57;3.42;;;2.10;;
75516;SDS011;64097;52.548;13.406;2022-12-07T12:57:39;3.42;;;2.30;;
75516;SDS011;64097;52.548;13.406;2022-12-07T13:05:28;4.85;;;2.30;;
75516;SDS011;64097;52.548;13.406;2022-12-07T13:10:31;3.72;;;2.33;;
75516;SDS011;64097;52.548;13.406;2022-12-07T13:13:02;4.53;;;2.43;;
75516;SDS011;64097;52.548;13.406;2022-12-07T13:15:32;5.63;;;2.90;;
75516;SDS011;64097;52.548;13.406;2022-12-07T13:23:19;5.85;;;2.70;;
75516;SDS011;64097;52.548;13.406;2022-12-07T13:28:34;6.43;;;2.55;;
75516;SDS011;64097;52.548;13.406;2022-12-07T13:31:09;4.50;;;2.35;;
75516;SDS011;64097;52.548;13.406;2022-12-07T13:33:39;5.45;;;2.35;;
75516;SDS011;64097;52.548;13.406;2022-12-07T13:36:21;5.13;;;2.55;;
75516;SDS011;64097;52.548;13.406;2022-12-07T13:38:53;7.65;;;2.78;;
75516;SDS011;64097;52.548;13.406;2022-12-07T13:41:23;6.70;;;2.60;;
75516;SDS011;64097;52.548;13.406;2022-12-07T13:43:59;6.05;;;2.42;;
75516;SDS011;64097;52.548;13.406;2022-12-07T13:46:35;3.55;;;2.03;;
75516;SDS011;64097;52.548;13.406;2022-12-07T13:49:23;4.80;;;2.40;;
75516;SDS011;64097;52.548;13.406;2022-12-07T13:51:51;6.22;;;2.10;;
75516;SDS011;64097;52.548;13.406;2022-12-07T13:54:19;5.85;;;2.25;;
75516;SDS011;64097;52.548;13.406;2022-12-07T13:56:50;4.20;;;2.08;;
75516;SDS011;64097;52.548;13.406;2022-12-07T13:59:21;5.43;;;2.20;;
75516;SDS011;64097;52.548;13.406;2022-12-07T14:07:25;6.32;;;2.13;;
75516;SDS011;64097;52.548;13.406;2022-12-07T14:10:00;4.13;;;2.20;;
75516;SDS011;64097;52.548;13.406;2022-12-07T14:12:28;2.95;;;1.90;;
75516;SDS011;64097;52.548;13.406;2022-12-07T14:14:55;3.38;;;1.92;;
75516;SDS011;64097;52.548;13.406;2022-12-07T14:17:23;4.70;;;1.90;;
75516;SDS011;64097;52.548;13.406;2022-12-07T14:19:54;2.78;;;1.60;;
75516;SDS011;64097;52.548;13.406;2022-12-07T14:22:33;5.55;;;2.35;;
75516;SDS011;64097;52.548;13.406;2022-12-07T14:27:47;3.97;;;2.08;;
75516;SDS011;64097;52.548;13.406;2022-12-07T14:30:17;4.53;;;2.28;;
75516;SDS011;64097;52.548;13.406;2022-12-07T14:32:44;3.78;;;2.10;;
75516;SDS011;64097;52.548;13.406;2022-12-07T14:35:17;4.20;;;1.98;;
75516;SDS011;64097;52.548;13.406;2022-12-07T14:37:45;4.22;;;2.03;;
75516;SDS011;64097;52.548;13.406;2022-12-07T14:40:17;4.05;;;2.30;;
75516;SDS011;64097;52.548;13.406;2022-12-07T14:42:45;4.93;;;2.17;;
75516;SDS011;64097;52.548;13.406;2022-12-07T14:45:15;4.75;;;2.30;;
75516;SDS011;64097;52.548;13.406;2022-12-07T14:47:43;4.72;;;2.28;;
75516;SDS011;64097;52.548;13.406;2022-12-07T14:50:14;6.72;;;2.40;;
75516;SDS011;64097;52.548;13.406;2022-12-07T14:52:42;4.97;;;2.60;;
75516;SDS011;64097;52.548;13.406;2022-12-07T14:55:16;5.65;;;2.75;;
75516;SDS011;64097;52.548;13.406;2022-12-07T14:57:51;6.60;;;3.22;;
75516;SDS011;64097;52.548;13.406;2022-12-07T15:00:18;5.88;;;2.75;;
75516;SDS011;64097;52.548;13.406;2022-12-07T15:02:46;6.25;;;2.80;;
75516;SDS011;64097;52.548;13.406;2022-12-07T15:05:13;7.07;;;2.70;;
75516;SDS011;64097;52.548;13.406;2022-12-07T15:07:39;5.70;;;2.55;;
75516;SDS011;64097;52.548;13.406;2022-12-07T15:10:05;5.20;;;2.47;;
75516;SDS011;64097;52.548;13.406;2022-12-07T15:12:35;5.68;;;2.60;;
75516;SDS011;64097;52.548;13.406;2022-12-07T15:15:00;8.30;;;2.80;;
75516;SDS011;64097;52.548;13.406;2022-12-07T15:17:26;4.90;;;2.67;;
75516;SDS011;64097;52.548;13.406;2022-12-07T15:19:52;5.40;;;2.60;;
75516;SDS011;64097;52.548;13.406;2022-12-07T15:22:18;5.25;;;2.78;;
75516;SDS011;64097;52.548;13.406;2022-12-07T15:24:43;5.57;;;2.08;;
75516;SDS011;64097;52.548;13.406;2022-12-07T15:27:09;4.80;;;2.10;;
75516;SDS011;64097;52.548;13.406;2022-12-07T15:29:35;3.60;;;1.80;;
75516;SDS011;64097;52.548;13.406;2022-12-07T15:32:01;3.20;;;1.48;;
75516;SDS011;64097;52.548;13.406;2022-12-07T15:34:27;2.83;;;1.50;;
75516;SDS011;64097;52.548;13.406;2022-12-07T15:36:53;4.50;;;1.98;;
75516;SDS011;64097;52.548;13.406;2022-12-07T15:39:19;5.22;;;2.08;;
75516;SDS011;64097;52.548;13.406;2022-12-07T15:41:46;5.15;;;1.73;;
75516;SDS011;64097;52.548;13.406;2022-12-07T15:44:12;4.28;;;1.75;;
75516;SDS011;64097;52.548;13.406;2022-12-07T15:46:57;6.03;;;2.00;;
75516;SDS011;64097;52.548;13.406;2022-12-07T15:49:22;5.13;;;2.08;;
75516;SDS011;64097;52.548;13.406;2022-12-07T15:51:48;4.80;;;1.90;;
75516;SDS011;64097;52.548;13.406;2022-12-07T15:54:21;3.88;;;1.90;;
75516;SDS011;64097;52.548;13.406;2022-12-07T15:56:48;2.92;;;1.65;;
75516;SDS011;64097;52.548;13.406;2022-12-07T15:59:14;4.15;;;2.03;;
75516;SDS011;64097;52.548;13.406;2022-12-07T16:01:40;4.82;;;2.00;;
75516;SDS011;64097;52.548;13.406;2022-12-07T16:04:06;4.72;;;1.73;;
75516;SDS011;64097;52.548;13.406;2022-12-07T16:06:32;4.47;;;1.98;;
75516;SDS011;64097;52.548;13.406;2022-12-07T16:08:58;5.88;;;2.20;;
75516;SDS011;64097;52.548;13.406;2022-12-07T16:11:23;3.38;;;1.55;;
75516;SDS011;64097;52.548;13.406;2022-12-07T16:13:49;5.97;;;1.90;;
75516;SDS011;64097;52.548;13.406;2022-12-07T16:16:16;4.63;;;2.10;;
75516;SDS011;64097;52.548;13.406;2022-12-07T16:18:44;5.82;;;2.10;;
75516;SDS011;64097;52.548;13.406;2022-12-07T16:21:11;5.43;;;2.22;;
75516;SDS011;64097;52.548;13.406;2022-12-07T16:23:37;2.95;;;1.63;;
75516;SDS011;64097;52.548;13.406;2022-12-07T16:26:04;4.18;;;1.95;;
75516;SDS011;64097;52.548;13.406;2022-12-07T16:28:34;4.90;;;2.28;;
75516;SDS011;64097;52.548;13.406;2022-12-07T16:31:08;4.45;;;1.90;;
75516;SDS011;64097;52.548;13.406;2022-12-07T16:33:36;3.55;;;2.00;;
75516;SDS011;64097;52.548;13.406;2022-12-07T16:36:03;3.92;;;2.20;;
75516;SDS011;64097;52.548;13.406;2022-12-07T16:38:31;4.55;;;2.30;;
75516;SDS011;64097;52.548;13.406;2022-12-07T16:40:57;4.93;;;2.45;;
75516;SDS011;64097;52.548;13.406;2022-12-07T16:43:22;4.75;;;2.00;;
75516;SDS011;64097;52.548;13.406;2022-12-07T16:45:48;5.43;;;2.63;;
75516;SDS011;64097;52.548;13.406;2022-12-07T16:48:15;4.90;;;2.50;;
75516;SDS011;64097;52.548;13.406;2022-12-07T16:50:41;6.47;;;2.50;;
75516;SDS011;64097;52.548;13.406;2022-12-07T16:53:08;6.30;;;2.38;;
75516;SDS011;64097;52.548;13.406;2022-12-07T16:55:38;4.53;;;2.40;;
75516;SDS011;64097;52.548;13.406;2022-12-07T16:58:05;4.30;;;1.92;;
75516;SDS011;64097;52.548;13.406;2022-12-07T17:00:31;5.32;;;2.30;;
75516;SDS011;64097;52.548;13.406;2022-12-07T17:02:57;4.85;;;2.78;;
75516;SDS011;64097;52.548;13.406;2022-12-07T17:05:22;4.68;;;2.78;;
75516;SDS011;64097;52.548;13.406;2022-12-07T17:07:49;4.28;;;2.50;;
75516;SDS011;64097;52.548;13.406;2022-12-07T17:10:15;5.13;;;2.65;;
75516;SDS011;64097;52.548;13.406;2022-12-07T17:12:41;5.85;;;2.60;;
75516;SDS011;64097;52.548;13.406;2022-12-07T17:15:07;4.68;;;2.45;;
75516;SDS011;64097;52.548;13.406;2022-12-07T17:17:46;5.93;;;2.50;;
75516;SDS011;64097;52.548;13.406;2022-12-07T17:20:15;6.95;;;2.65;;
75516;SDS011;64097;52.548;13.406;2022-12-07T17:22:42;4.13;;;2.33;;
75516;SDS011;64097;52.548;13.406;2022-12-07T17:25:08;3.67;;;2.22;;
75516;SDS011;64097;52.548;13.406;2022-12-07T17:27:34;4.28;;;2.47;;
75516;SDS011;64097;52.548;13.406;2022-12-07T17:30:01;6.00;;;2.90;;
75516;SDS011;64097;52.548;13.406;2022-12-07T17:32:31;5.57;;;2.92;;
75516;SDS011;64097;52.548;13.406;2022-12-07T17:34:56;5.15;;;2.63;;
75516;SDS011;64097;52.548;13.406;2022-12-07T17:37:22;6.85;;;2.70;;
75516;SDS011;64097;52.548;13.406;2022-12-07T17:39:48;3.92;;;2.30;;
75516;SDS011;64097;52.548;13.406;2022-12-07T17:42:14;4.70;;;2.20;;
75516;SDS011;64097;52.548;13.406;2022-12-07T17:44:59;5.82;;;2.75;;
75516;SDS011;64097;52.548;13.406;2022-12-07T17:47:24;5.88;;;2.78;;
75516;SDS011;64097;52.548;13.406;2022-12-07T17:49:50;6.93;;;3.20;;
75516;SDS011;64097;52.548;13.406;2022-12-07T17:52:16;5.47;;;2.97;;
75516;SDS011;64097;52.548;13.406;2022-12-07T17:57:26;5.38;;;2.63;;
75516;SDS011;64097;52.548;13.406;2022-12-07T17:59:51;4.90;;;2.65;;
75516;SDS011;64097;52.548;13.406;2022-12-07T18:02:19;4.63;;;2.38;;
75516;SDS011;64097;52.548;13.406;2022-12-07T18:04:45;3.53;;;1.95;;
75516;SDS011;64097;52.548;13.406;2022-12-07T18:07:11;4.88;;;2.47;;
75516;SDS011;64097;52.548;13.406;2022-12-07T18:09:37;4.30;;;2.40;;
75516;SDS011;64097;52.548;13.406;2022-12-07T18:12:03;4.47;;;2.30;;
75516;SDS011;64097;52.548;13.406;2022-12-07T18:14:29;3.90;;;2.25;;
75516;SDS011;64097;52.548;13.406;2022-12-07T18:16:55;4.93;;;2.10;;
75516;SDS011;64097;52.548;13.406;2022-12-07T18:19:20;4.20;;;2.50;;
75516;SDS011;64097;52.548;13.406;2022-12-07T18:21:46;3.78;;;2.55;;
75516;SDS011;64097;52.548;13.406;2022-12-07T18:24:12;4.90;;;2.55;;
75516;SDS011;64097;52.548;13.406;2022-12-07T18:26:40;5.20;;;2.38;;
75516;SDS011;64097;52.548;13.406;2022-12-07T18:29:07;5.43;;;2.78;;
75516;SDS011;64097;52.548;13.406;2022-12-07T18:31:33;5.28;;;2.97;;
75516;SDS011;64097;52.548;13.406;2022-12-07T18:34:00;5.38;;;2.97;;
75516;SDS011;64097;52.548;13.406;2022-12-07T18:36:28;8.73;;;5.00;;
75516;SDS011;64097;52.548;13.406;2022-12-07T18:38:53;6.80;;;3.85;;
75516;SDS011;64097;52.548;13.406;2022-12-07T18:41:19;6.50;;;3.42;;
75516;SDS011;64097;52.548;13.406;2022-12-07T18:43:45;7.50;;;3.50;;
75516;SDS011;64097;52.548;13.406;2022-12-07T18:46:11;6.47;;;2.95;;
75516;SDS011;64097;52.548;13.406;2022-12-07T18:48:39;4.25;;;2.50;;
75516;SDS011;64097;52.548;13.406;2022-12-07T18:51:05;5.20;;;3.03;;
75516;SDS011;64097;52.548;13.406;2022-12-07T18:53:32;4.07;;;2.88;;
75516;SDS011;64097;52.548;13.406;2022-12-07T18:56:00;7.22;;;2.75;;
75516;SDS011;64097;52.548;13.406;2022-12-07T18:58:35;4.03;;;2.60;;
75516;SDS011;64097;52.548;13.406;2022-12-07T19:01:01;3.38;;;2.60;;
75516;SDS011;64097;52.548;13.406;2022-12-07T19:03:27;4.72;;;2.75;;
75516;SDS011;64097;52.548;13.406;2022-12-07T19:05:53;7.10;;;3.45;;
75516;SDS011;64097;52.548;13.406;2022-12-07T19:08:21;5.65;;;2.85;;
75516;SDS011;64097;52.548;13.406;2022-12-07T19:10:47;7.20;;;3.95;;
75516;SDS011;64097;52.548;13.406;2022-12-07T19:13:14;8.05;;;4.30;;
75516;SDS011;64097;52.548;13.406;2022-12-07T19:15:40;6.93;;;3.50;;
75516;SDS011;64097;52.548;13.406;2022-12-07T19:18:06;5.57;;;3.38;;
75516;SDS011;64097;52.548;13.406;2022-12-07T19:20:32;4.78;;;3.30;;
75516;SDS011;64097;52.548;13.406;2022-12-07T19:22:58;6.03;;;3.38;;
75516;SDS011;64097;52.548;13.406;2022-12-07T19:25:23;4.50;;;2.83;;
75516;SDS011;64097;52.548;13.406;2022-12-07T19:27:49;5.60;;;3.38;;
75516;SDS011;64097;52.548;13.406;2022-12-07T19:30:15;5.90;;;3.17;;
75516;SDS011;64097;52.548;13.406;2022-12-07T19:32:40;6.78;;;3.08;;
75516;SDS011;64097;52.548;13.406;2022-12-07T19:35:06;4.70;;;3.45;;
75516;SDS011;64097;52.548;13.406;2022-12-07T19:37:32;6.43;;;3.70;;
75516;SDS011;64097;52.548;13.406;2022-12-07T19:39:58;5.95;;;3.22;;
75516;SDS011;64097;52.548;13.406;2022-12-07T19:42:24;4.40;;;3.33;;
75516;SDS011;64097;52.548;13.406;2022-12-07T19:44:49;3.85;;;2.80;;
75516;SDS011;64097;52.548;13.406;2022-12-07T19:47:15;6.53;;;3.50;;
75516;SDS011;64097;52.548;13.406;2022-12-07T19:49:41;5.00;;;3.30;;
75516;SDS011;64097;52.548;13.406;2022-12-07T19:52:09;5.05;;;3.45;;
75516;SDS011;64097;52.548;13.406;2022-12-07T19:54:36;5.80;;;3.08;;
75516;SDS011;64097;52.548;13.406;2022-12-07T19:57:03;7.00;;;3.53;;
75516;SDS011;64097;52.548;13.406;2022-12-07T19:59:29;8.02;;;4.20;;
75516;SDS011;64097;52.548;13.406;2022-12-07T20:01:56;6.43;;;3.72;;
75516;SDS011;64097;52.548;13.406;2022-12-07T20:04:23;5.25;;;3.53;;
75516;SDS011;64097;52.548;13.406;2022-12-07T20:06:51;6.18;;;3.50;;
75516;SDS011;64097;52.548;13.406;2022-12-07T20:09:22;6.80;;;4.18;;
75516;SDS011;64097;52.548;13.406;2022-12-07T20:11:48;5.13;;;3.40;;
75516;SDS011;64097;52.548;13.406;2022-12-07T20:14:33;6.72;;;3.97;;
75516;SDS011;64097;52.548;13.406;2022-12-07T20:16:59;6.68;;;4.35;;
75516;SDS011;64097;52.548;13.406;2022-12-07T20:19:25;7.30;;;3.88;;
75516;SDS011;64097;52.548;13.406;2022-12-07T20:21:51;5.90;;;3.83;;
75516;SDS011;64097;52.548;13.406;2022-12-07T20:24:20;6.03;;;3.60;;
75516;SDS011;64097;52.548;13.406;2022-12-07T20:26:48;8.20;;;4.93;;
75516;SDS011;64097;52.548;13.406;2022-12-07T20:29:16;6.10;;;4.03;;
75516;SDS011;64097;52.548;13.406;2022-12-07T20:31:43;6.00;;;4.20;;
75516;SDS011;64097;52.548;13.406;2022-12-07T20:34:10;5.35;;;3.88;;
75516;SDS011;64097;52.548;13.406;2022-12-07T20:36:36;5.78;;;4.03;;
75516;SDS011;64097;52.548;13.406;2022-12-07T20:39:03;5.90;;;3.88;;
75516;SDS011;64097;52.548;13.406;2022-12-07T20:41:30;5.70;;;4.38;;
75516;SDS011;64097;52.548;13.406;2022-12-07T20:44:15;6.95;;;4.82;;
75516;SDS011;64097;52.548;13.406;2022-12-07T20:46:41;7.65;;;4.50;;
75516;SDS011;64097;52.548;13.406;2022-12-07T20:49:06;7.28;;;4.93;;
75516;SDS011;64097;52.548;13.406;2022-12-07T20:51:33;8.10;;;4.47;;
75516;SDS011;64097;52.548;13.406;2022-12-07T20:53:58;5.82;;;4.18;;
75516;SDS011;64097;52.548;13.406;2022-12-07T20:58:56;9.00;;;5.55;;
75516;SDS011;64097;52.548;13.406;2022-12-07T21:01:23;6.75;;;4.63;;
75516;SDS011;64097;52.548;13.406;2022-12-07T21:03:49;8.77;;;4.82;;
75516;SDS011;64097;52.548;13.406;2022-12-07T21:06:19;7.45;;;4.43;;
75516;SDS011;64097;52.548;13.406;2022-12-07T21:08:45;7.80;;;4.53;;
75516;SDS011;64097;52.548;13.406;2022-12-07T21:11:13;5.90;;;4.35;;
75516;SDS011;64097;52.548;13.406;2022-12-07T21:13:40;5.85;;;3.90;;
75516;SDS011;64097;52.548;13.406;2022-12-07T21:16:06;6.13;;;3.60;;
75516;SDS011;64097;52.548;13.406;2022-12-07T21:18:33;5.75;;;3.83;;
75516;SDS011;64097;52.548;13.406;2022-12-07T21:21:02;5.63;;;3.50;;
75516;SDS011;64097;52.548;13.406;2022-12-07T21:23:29;4.93;;;3.40;;
75516;SDS011;64097;52.548;13.406;2022-12-07T21:25:55;5.72;;;3.40;;
75516;SDS011;64097;52.548;13.406;2022-12-07T21:28:21;5.18;;;3.75;;
75516;SDS011;64097;52.548;13.406;2022-12-07T21:30:47;4.75;;;3.17;;
75516;SDS011;64097;52.548;13.406;2022-12-07T21:33:13;5.95;;;3.33;;
75516;SDS011;64097;52.548;13.406;2022-12-07T21:35:38;6.38;;;4.03;;
75516;SDS011;64097;52.548;13.406;2022-12-07T21:38:04;6.72;;;3.35;;
75516;SDS011;64097;52.548;13.406;2022-12-07T21:40:30;4.80;;;3.45;;
75516;SDS011;64097;52.548;13.406;2022-12-07T21:42:55;4.97;;;3.45;;
75516;SDS011;64097;52.548;13.406;2022-12-07T21:45:21;5.78;;;3.90;;
75516;SDS011;64097;52.548;13.406;2022-12-07T21:47:46;5.82;;;3.55;;
75516;SDS011;64097;52.548;13.406;2022-12-07T21:50:12;5.25;;;3.75;;
75516;SDS011;64097;52.548;13.406;2022-12-07T21:52:38;6.07;;;3.60;;
75516;SDS011;64097;52.548;13.406;2022-12-07T21:55:04;7.60;;;3.60;;
75516;SDS011;64097;52.548;13.406;2022-12-07T21:57:33;7.07;;;3.90;;
75516;SDS011;64097;52.548;13.406;2022-12-07T21:59:58;4.57;;;3.40;;
75516;SDS011;64097;52.548;13.406;2022-12-07T22:02:24;5.18;;;3.63;;
75516;SDS011;64097;52.548;13.406;2022-12-07T22:04:50;5.72;;;3.83;;
75516;SDS011;64097;52.548;13.406;2022-12-07T22:07:15;7.32;;;4.95;;
75516;SDS011;64097;52.548;13.406;2022-12-07T22:09:41;6.55;;;3.78;;
75516;SDS011;64097;52.548;13.406;2022-12-07T22:12:07;5.50;;;4.05;;
75516;SDS011;64097;52.548;13.406;2022-12-07T22:14:32;8.02;;;5.05;;
75516;SDS011;64097;52.548;13.406;2022-12-07T22:19:42;5.63;;;3.70;;
75516;SDS011;64097;52.548;13.406;2022-12-07T22:22:11;5.68;;;4.20;;
75516;SDS011;64097;52.548;13.406;2022-12-07T22:24:38;4.80;;;3.75;;
75516;SDS011;64097;52.548;13.406;2022-12-07T22:27:04;6.85;;;4.32;;
75516;SDS011;64097;52.548;13.406;2022-12-07T22:29:29;8.18;;;5.20;;
75516;SDS011;64097;52.548;13.406;2022-12-07T22:31:55;7.97;;;4.97;;
75516;SDS011;64097;52.548;13.406;2022-12-07T22:34:21;5.55;;;4.10;;